Time;durP1;ratioP1;P1;durP2;ratioP2;P2;SDS_P1;SDS_P2;PMS_P1;PMS_P2;Temp;Humidity;BMP_temperature;BMP_pressure;BME280_temperature;BME280_humidity;BME280_pressure;Samples;Min_cycle;Max_cycle;Signal;HPM_P1;HPM_P2
2023/12/11 00:00:47;;;;;;;3.27;1.90;;;;;;;;;;5062364;28;20207;-67
2023/12/11 00:03:15;;;;;;;3.80;0.93;;;;;;;;;;5065800;28;20237;-67
2023/12/11 00:05:43;;;;;;;4.10;1.53;;;;;;;;;;5056332;28;20270;-67
2023/12/11 00:08:10;;;;;;;3.17;1.13;;;;;;;;;;5067138;28;20347;-68
2023/12/11 00:10:37;;;;;;;3.23;1.33;;;;;;;;;;5060800;28;20252;-67
2023/12/11 00:13:06;;;;;;;3.63;1.30;;;;;;;;;;5064142;28;20282;-67
2023/12/11 00:15:33;;;;;;;4.03;1.33;;;;;;;;;;5060983;28;20259;-68
2023/12/11 00:18:00;;;;;;;3.30;1.20;;;;;;;;;;5065855;28;20238;-67
2023/12/11 00:20:27;;;;;;;5.30;1.47;;;;;;;;;;5062438;28;20384;-67
2023/12/11 00:22:54;;;;;;;3.20;1.43;;;;;;;;;;5063014;28;20327;-68
2023/12/11 00:25:21;;;;;;;5.17;1.60;;;;;;;;;;5064196;28;20230;-67
2023/12/11 00:27:49;;;;;;;3.50;1.30;;;;;;;;;;5058318;28;20293;-67
2023/12/11 00:30:17;;;;;;;1.63;1.17;;;;;;;;;;5061868;28;20250;-67
2023/12/11 00:32:44;;;;;;;4.43;1.27;;;;;;;;;;5060273;28;20289;-68
2023/12/11 00:35:12;;;;;;;5.83;1.67;;;;;;;;;;5061801;28;20231;-68
2023/12/11 00:37:39;;;;;;;5.07;1.57;;;;;;;;;;5058450;28;20218;-68
2023/12/11 00:40:07;;;;;;;4.87;1.30;;;;;;;;;;5065802;28;20274;-67
2023/12/11 00:42:34;;;;;;;5.53;1.60;;;;;;;;;;5060518;28;20209;-67
2023/12/11 00:45:01;;;;;;;4.47;1.70;;;;;;;;;;5062723;28;20249;-68
2023/12/11 00:47:30;;;;;;;5.03;1.37;;;;;;;;;;5065978;28;20261;-67
2023/12/11 00:49:57;;;;;;;5.63;1.60;;;;;;;;;;5060028;28;20278;-67
2023/12/11 00:52:24;;;;;;;3.90;1.30;;;;;;;;;;5060606;28;20211;-67
2023/12/11 00:54:51;;;;;;;8.10;2.10;;;;;;;;;;5062795;28;20219;-67
2023/12/11 00:57:19;;;;;;;5.33;1.70;;;;;;;;;;5062587;28;20234;-68
2023/12/11 00:59:46;;;;;;;5.93;1.70;;;;;;;;;;5064371;28;20585;-67
2023/12/11 01:02:13;;;;;;;4.23;1.40;;;;;;;;;;5059494;28;20409;-67
2023/12/11 01:04:42;;;;;;;7.53;1.60;;;;;;;;;;5061226;28;20301;-67
2023/12/11 01:07:09;;;;;;;5.57;1.60;;;;;;;;;;5063994;28;20210;-67
2023/12/11 01:09:36;;;;;;;4.13;1.90;;;;;;;;;;5065629;28;20249;-67
2023/12/11 01:12:03;;;;;;;5.17;1.83;;;;;;;;;;5064944;28;20230;-67
2023/12/11 01:14:31;;;;;;;5.93;2.10;;;;;;;;;;5061654;28;20262;-68
2023/12/11 01:16:58;;;;;;;6.60;1.90;;;;;;;;;;5063539;28;20287;-68
2023/12/11 01:19:25;;;;;;;5.07;1.60;;;;;;;;;;5065081;28;20235;-67
2023/12/11 01:21:54;;;;;;;5.47;1.50;;;;;;;;;;5066044;28;20252;-68
2023/12/11 01:24:21;;;;;;;5.50;1.80;;;;;;;;;;5069829;28;20242;-68
2023/12/11 01:26:48;;;;;;;8.40;1.73;;;;;;;;;;5069122;28;20260;-67
2023/12/11 01:29:15;;;;;;;4.47;1.90;;;;;;;;;;5063284;28;20302;-67
2023/12/11 01:31:42;;;;;;;6.67;2.13;;;;;;;;;;5066771;28;22087;-63
2023/12/11 01:34:10;;;;;;;11.37;2.07;;;;;;;;;;5064871;28;20254;-63
2023/12/11 01:36:37;;;;;;;7.37;1.90;;;;;;;;;;5064972;28;20234;-62
2023/12/11 01:39:06;;;;;;;7.10;1.77;;;;;;;;;;5068337;28;20283;-62
2023/12/11 01:41:33;;;;;;;8.17;2.40;;;;;;;;;;5064483;28;20202;-62
2023/12/11 01:44:00;;;;;;;8.23;2.13;;;;;;;;;;5066097;28;20246;-62
2023/12/11 01:46:27;;;;;;;8.40;2.63;;;;;;;;;;5068832;28;20243;-62
2023/12/11 01:48:55;;;;;;;6.60;2.30;;;;;;;;;;5062801;28;20231;-63
2023/12/11 01:51:22;;;;;;;8.57;2.67;;;;;;;;;;5064620;28;20217;-63
2023/12/11 01:53:51;;;;;;;10.40;2.43;;;;;;;;;;5064955;28;20345;-63
2023/12/11 01:56:20;;;;;;;12.03;2.40;;;;;;;;;;5068479;28;20281;-62
2023/12/11 01:58:48;;;;;;;8.23;2.00;;;;;;;;;;5064688;28;20267;-62
2023/12/11 02:01:16;;;;;;;14.03;2.57;;;;;;;;;;5069723;28;20285;-62
2023/12/11 02:03:43;;;;;;;8.00;2.17;;;;;;;;;;5062902;28;20314;-62
2023/12/11 02:06:10;;;;;;;6.47;2.20;;;;;;;;;;5067720;28;20265;-64
2023/12/11 02:08:38;;;;;;;11.40;2.17;;;;;;;;;;5067096;28;20207;-63
2023/12/11 02:11:05;;;;;;;6.03;2.17;;;;;;;;;;5070203;28;20227;-63
2023/12/11 02:13:35;;;;;;;11.57;2.27;;;;;;;;;;5060004;28;20294;-63
2023/12/11 02:16:02;;;;;;;8.73;2.70;;;;;;;;;;5068961;28;20203;-63
2023/12/11 02:18:29;;;;;;;9.00;2.57;;;;;;;;;;5069341;28;20227;-62
2023/12/11 02:20:57;;;;;;;7.50;2.20;;;;;;;;;;5066014;28;20242;-63
2023/12/11 02:23:27;;;;;;;9.87;2.13;;;;;;;;;;5062704;28;20453;-62
2023/12/11 02:26:02;;;;;;;8.60;2.53;;;;;;;;;;5068665;28;20290;-62
2023/12/11 02:28:29;;;;;;;9.47;2.83;;;;;;;;;;5063612;28;20244;-62
2023/12/11 02:30:56;;;;;;;6.70;2.20;;;;;;;;;;5066456;28;20249;-63
2023/12/11 02:33:24;;;;;;;12.37;2.30;;;;;;;;;;5062068;28;20260;-63
2023/12/11 02:35:51;;;;;;;9.87;2.50;;;;;;;;;;5066707;28;20237;-62
2023/12/11 02:38:18;;;;;;;11.53;2.40;;;;;;;;;;5067990;28;20234;-62
2023/12/11 02:40:45;;;;;;;9.17;2.00;;;;;;;;;;5064971;28;20285;-66
2023/12/11 02:43:14;;;;;;;7.23;2.43;;;;;;;;;;5063652;28;20253;-68
2023/12/11 02:45:43;;;;;;;9.97;2.30;;;;;;;;;;5064993;28;20207;-67
2023/12/11 02:48:10;;;;;;;8.37;2.30;;;;;;;;;;5062469;28;20204;-68
2023/12/11 02:50:37;;;;;;;12.90;2.60;;;;;;;;;;5066818;28;20230;-67
2023/12/11 02:53:05;;;;;;;11.63;2.10;;;;;;;;;;5060654;28;20238;-67
2023/12/11 02:55:32;;;;;;;11.40;2.30;;;;;;;;;;5059466;28;20227;-68
2023/12/11 02:58:00;;;;;;;15.50;2.50;;;;;;;;;;5066031;28;20199;-68
2023/12/11 03:00:29;;;;;;;9.17;2.23;;;;;;;;;;5065791;28;20199;-66
2023/12/11 03:02:56;;;;;;;5.80;1.90;;;;;;;;;;5059110;28;20249;-68
2023/12/11 03:05:24;;;;;;;8.60;2.70;;;;;;;;;;5064718;28;20331;-68
2023/12/11 03:07:51;;;;;;;7.93;2.40;;;;;;;;;;5061855;28;20202;-67
2023/12/11 03:10:19;;;;;;;10.30;2.47;;;;;;;;;;5061658;28;20298;-69
2023/12/11 03:12:46;;;;;;;8.57;2.17;;;;;;;;;;5061826;28;20270;-67
2023/12/11 03:15:13;;;;;;;8.20;2.33;;;;;;;;;;5066999;28;20239;-67
2023/12/11 03:17:41;;;;;;;7.87;2.20;;;;;;;;;;5065756;28;20235;-67
2023/12/11 03:20:11;;;;;;;8.20;2.20;;;;;;;;;;5066599;28;20203;-67
2023/12/11 03:22:38;;;;;;;9.13;2.73;;;;;;;;;;5062685;28;20213;-67
2023/12/11 03:25:06;;;;;;;7.50;2.23;;;;;;;;;;5062446;28;20251;-68
2023/12/11 03:27:33;;;;;;;8.47;2.10;;;;;;;;;;5061453;28;20235;-68
2023/12/11 03:30:00;;;;;;;11.20;2.93;;;;;;;;;;5065207;28;20218;-68
2023/12/11 03:32:27;;;;;;;5.97;1.83;;;;;;;;;;5061064;28;20251;-68
2023/12/11 03:34:56;;;;;;;12.67;3.13;;;;;;;;;;5060403;28;20194;-68
2023/12/11 03:37:23;;;;;;;9.17;2.47;;;;;;;;;;5061975;28;20298;-67
2023/12/11 03:39:50;;;;;;;9.70;2.60;;;;;;;;;;5063068;28;20237;-68
2023/12/11 03:42:18;;;;;;;10.50;2.03;;;;;;;;;;5066594;28;20245;-67
2023/12/11 03:44:45;;;;;;;8.37;2.00;;;;;;;;;;5064649;28;20254;-67
2023/12/11 03:47:12;;;;;;;6.97;1.97;;;;;;;;;;5063297;28;20227;-67
2023/12/11 03:49:39;;;;;;;9.27;2.37;;;;;;;;;;5067210;28;20277;-69
2023/12/11 03:52:08;;;;;;;6.47;2.50;;;;;;;;;;5067405;28;20242;-66
2023/12/11 03:54:36;;;;;;;7.87;1.97;;;;;;;;;;5064108;28;20240;-68
2023/12/11 03:57:03;;;;;;;9.13;2.37;;;;;;;;;;5061921;28;20206;-67
2023/12/11 03:59:30;;;;;;;7.63;1.90;;;;;;;;;;5063511;28;20246;-67
2023/12/11 04:01:58;;;;;;;7.80;2.47;;;;;;;;;;5062641;28;20202;-67
2023/12/11 04:04:25;;;;;;;8.13;1.83;;;;;;;;;;5060611;28;20223;-67
2023/12/11 04:06:52;;;;;;;7.07;2.27;;;;;;;;;;5060086;28;20272;-66
2023/12/11 04:09:21;;;;;;;6.47;2.10;;;;;;;;;;5061924;28;20238;-67
2023/12/11 04:11:48;;;;;;;6.53;2.03;;;;;;;;;;5063514;28;20195;-67
2023/12/11 04:14:15;;;;;;;4.30;1.63;;;;;;;;;;5068925;28;20234;-68
2023/12/11 04:16:42;;;;;;;6.40;2.03;;;;;;;;;;5066157;28;20218;-67
2023/12/11 04:19:11;;;;;;;5.10;2.00;;;;;;;;;;5065372;28;20255;-67
2023/12/11 04:21:38;;;;;;;8.40;1.83;;;;;;;;;;5064715;28;20203;-67
2023/12/11 04:24:06;;;;;;;4.73;1.60;;;;;;;;;;5062502;28;20273;-68
2023/12/11 04:26:35;;;;;;;5.50;1.87;;;;;;;;;;5062113;28;20284;-67
2023/12/11 04:29:02;;;;;;;7.47;2.10;;;;;;;;;;5064155;28;20234;-68
2023/12/11 04:31:29;;;;;;;3.83;1.70;;;;;;;;;;5063953;28;20234;-66
2023/12/11 04:33:56;;;;;;;3.73;1.67;;;;;;;;;;5059418;28;20249;-67
2023/12/11 04:36:23;;;;;;;6.03;1.63;;;;;;;;;;5065491;28;20235;-67
2023/12/11 04:38:51;;;;;;;3.90;1.87;;;;;;;;;;5061250;28;20207;-67
2023/12/11 04:41:18;;;;;;;4.67;2.03;;;;;;;;;;5065690;28;20211;-68
2023/12/11 04:43:47;;;;;;;4.97;1.90;;;;;;;;;;5069288;28;20194;-68
2023/12/11 04:46:14;;;;;;;6.20;2.53;;;;;;;;;;5066727;28;20241;-71
2023/12/11 04:48:41;;;;;;;5.53;1.83;;;;;;;;;;5067834;28;20199;-67
2023/12/11 04:51:08;;;;;;;4.30;1.63;;;;;;;;;;5067059;28;20230;-67
2023/12/11 04:53:36;;;;;;;3.20;1.50;;;;;;;;;;5065627;28;20238;-69
2023/12/11 04:56:06;;;;;;;7.03;1.60;;;;;;;;;;5070859;28;20199;-67
2023/12/11 04:58:33;;;;;;;5.07;1.33;;;;;;;;;;5064386;28;20199;-67
2023/12/11 05:01:02;;;;;;;2.90;1.40;;;;;;;;;;5071675;28;20199;-68
2023/12/11 05:03:29;;;;;;;3.17;1.27;;;;;;;;;;5066225;28;20277;-68
2023/12/11 05:05:57;;;;;;;4.97;1.30;;;;;;;;;;5063147;28;20222;-67
2023/12/11 05:08:24;;;;;;;5.17;1.70;;;;;;;;;;5069782;28;20222;-67
2023/12/11 05:10:51;;;;;;;4.63;1.47;;;;;;;;;;5065247;28;20286;-67
2023/12/11 05:13:18;;;;;;;5.37;1.53;;;;;;;;;;5066708;28;20235;-67
2023/12/11 05:15:45;;;;;;;5.07;1.60;;;;;;;;;;5063408;28;20195;-67
2023/12/11 05:18:14;;;;;;;6.63;1.60;;;;;;;;;;5065306;28;20241;-68
2023/12/11 05:20:41;;;;;;;5.97;1.50;;;;;;;;;;5063792;28;20230;-68
2023/12/11 05:23:08;;;;;;;5.50;1.47;;;;;;;;;;5068883;28;20239;-67
2023/12/11 05:25:36;;;;;;;4.10;1.40;;;;;;;;;;5067910;28;20250;-67
2023/12/11 05:28:03;;;;;;;3.13;1.20;;;;;;;;;;5065099;28;20208;-67
2023/12/11 05:30:31;;;;;;;7.87;1.87;;;;;;;;;;5065215;28;20238;-68
2023/12/11 05:32:59;;;;;;;5.97;1.50;;;;;;;;;;5069280;28;20202;-67
2023/12/11 05:35:27;;;;;;;4.83;1.40;;;;;;;;;;5069991;28;20222;-67
2023/12/11 05:37:57;;;;;;;3.63;1.40;;;;;;;;;;5066574;28;20252;-68
2023/12/11 05:40:24;;;;;;;4.20;1.53;;;;;;;;;;5064663;28;20207;-68
2023/12/11 05:42:52;;;;;;;5.60;1.47;;;;;;;;;;5066718;28;20227;-68
2023/12/11 05:45:19;;;;;;;5.60;1.47;;;;;;;;;;5064394;28;20265;-67
2023/12/11 05:47:46;;;;;;;4.77;1.33;;;;;;;;;;5064371;28;20230;-67
2023/12/11 05:50:14;;;;;;;6.00;1.83;;;;;;;;;;5060459;28;20246;-67
2023/12/11 05:52:44;;;;;;;5.43;1.77;;;;;;;;;;5051635;28;20318;-67
2023/12/11 05:55:11;;;;;;;4.57;1.33;;;;;;;;;;5042560;28;20227;-67
2023/12/11 05:57:38;;;;;;;6.47;1.40;;;;;;;;;;5043948;28;20200;-67
2023/12/11 06:00:06;;;;;;;5.53;1.80;;;;;;;;;;5046923;28;20227;-66
2023/12/11 06:02:33;;;;;;;5.00;1.53;;;;;;;;;;5048461;28;20241;-67
2023/12/11 06:05:01;;;;;;;4.33;1.60;;;;;;;;;;5045605;28;20255;-69
2023/12/11 06:07:28;;;;;;;5.57;1.40;;;;;;;;;;5042147;28;20257;-67
2023/12/11 06:09:56;;;;;;;6.30;1.97;;;;;;;;;;5045218;28;20235;-69
2023/12/11 06:12:24;;;;;;;6.30;1.80;;;;;;;;;;5044208;28;20258;-69
2023/12/11 06:14:51;;;;;;;4.93;1.50;;;;;;;;;;5041494;28;20227;-67
2023/12/11 06:17:19;;;;;;;7.07;1.53;;;;;;;;;;5044735;28;20222;-69
2023/12/11 06:19:46;;;;;;;8.50;2.00;;;;;;;;;;5041185;28;20299;-68
2023/12/11 06:22:14;;;;;;;4.70;1.77;;;;;;;;;;5040915;28;20254;-67
2023/12/11 06:24:41;;;;;;;6.10;1.80;;;;;;;;;;5041899;28;20597;-68
2023/12/11 06:27:10;;;;;;;6.20;1.80;;;;;;;;;;5040647;28;20254;-68
2023/12/11 06:29:37;;;;;;;4.73;1.60;;;;;;;;;;5033288;28;20259;-68
2023/12/11 06:32:05;;;;;;;5.53;1.60;;;;;;;;;;5040006;28;20306;-67
2023/12/11 06:34:33;;;;;;;8.83;2.30;;;;;;;;;;5041511;28;20204;-68
2023/12/11 06:37:00;;;;;;;7.27;1.90;;;;;;;;;;5047756;28;20215;-68
2023/12/11 06:39:27;;;;;;;6.07;1.87;;;;;;;;;;5037686;28;20298;-67
2023/12/11 06:41:54;;;;;;;7.60;2.00;;;;;;;;;;5040029;28;20211;-68
2023/12/11 06:44:23;;;;;;;6.43;2.23;;;;;;;;;;5037409;28;20262;-67
2023/12/11 06:46:50;;;;;;;8.87;1.83;;;;;;;;;;5042103;28;20343;-68
2023/12/11 06:49:17;;;;;;;11.23;3.97;;;;;;;;;;5041469;28;20226;-67
2023/12/11 06:51:45;;;;;;;7.57;2.20;;;;;;;;;;5042344;28;20204;-67
2023/12/11 06:54:12;;;;;;;7.57;1.70;;;;;;;;;;5041345;28;20204;-68
2023/12/11 06:56:40;;;;;;;7.87;2.03;;;;;;;;;;5041450;28;20223;-68
2023/12/11 06:59:07;;;;;;;7.87;2.37;;;;;;;;;;5038403;28;20208;-68
2023/12/11 07:01:36;;;;;;;8.80;1.97;;;;;;;;;;5039714;28;20204;-68
2023/12/11 07:04:05;;;;;;;9.10;2.80;;;;;;;;;;5037931;28;20258;-68
2023/12/11 07:06:32;;;;;;;9.13;2.23;;;;;;;;;;5035119;28;20220;-68
2023/12/11 07:08:59;;;;;;;11.17;2.43;;;;;;;;;;5036407;28;20293;-68
2023/12/11 07:11:26;;;;;;;10.20;2.60;;;;;;;;;;5044042;28;20199;-67
2023/12/11 07:13:54;;;;;;;9.70;2.67;;;;;;;;;;5041793;28;20326;-68
2023/12/11 07:16:23;;;;;;;7.67;2.60;;;;;;;;;;5044534;28;20240;-68
2023/12/11 07:18:52;;;;;;;11.40;2.43;;;;;;;;;;5043285;28;20211;-67
2023/12/11 07:21:19;;;;;;;9.50;2.60;;;;;;;;;;5043024;28;20269;-69
2023/12/11 07:23:48;;;;;;;10.47;2.80;;;;;;;;;;5040012;28;20236;-67
2023/12/11 07:26:15;;;;;;;11.20;2.33;;;;;;;;;;5042420;28;20281;-68
2023/12/11 07:28:42;;;;;;;10.73;2.67;;;;;;;;;;5041728;28;20228;-67
2023/12/11 07:31:09;;;;;;;8.60;2.20;;;;;;;;;;5032922;28;20235;-68
2023/12/11 07:33:36;;;;;;;13.27;2.30;;;;;;;;;;5046959;28;20273;-68
2023/12/11 07:36:06;;;;;;;8.67;2.37;;;;;;;;;;5039741;28;20243;-68
2023/12/11 07:38:33;;;;;;;11.00;2.83;;;;;;;;;;5040311;28;20204;-67
2023/12/11 07:41:00;;;;;;;9.47;2.30;;;;;;;;;;5036749;28;20294;-68
2023/12/11 07:43:27;;;;;;;11.47;3.17;;;;;;;;;;5042792;28;20237;-68
2023/12/11 07:45:55;;;;;;;10.00;2.60;;;;;;;;;;5040710;28;20251;-68
2023/12/11 07:48:22;;;;;;;9.63;3.30;;;;;;;;;;5043830;28;20231;-68
2023/12/11 07:50:49;;;;;;;8.83;2.23;;;;;;;;;;5041553;28;20196;-68
2023/12/11 07:53:18;;;;;;;11.53;2.40;;;;;;;;;;5038150;28;20281;-68
2023/12/11 07:55:45;;;;;;;10.50;2.43;;;;;;;;;;5041648;28;20239;-68
2023/12/11 07:58:13;;;;;;;10.87;2.53;;;;;;;;;;5042309;28;20212;-67
2023/12/11 08:00:41;;;;;;;15.00;3.10;;;;;;;;;;5042786;28;20219;-68
2023/12/11 08:03:10;;;;;;;12.03;3.03;;;;;;;;;;5037279;28;20216;-67
2023/12/11 08:05:37;;;;;;;13.20;2.80;;;;;;;;;;5040172;28;20212;-68
2023/12/11 08:08:05;;;;;;;14.87;3.10;;;;;;;;;;5038127;28;20207;-68
2023/12/11 08:10:33;;;;;;;8.33;2.70;;;;;;;;;;5035605;28;20264;-67
2023/12/11 08:13:00;;;;;;;12.23;2.67;;;;;;;;;;5040884;28;20258;-68
2023/12/11 08:15:28;;;;;;;9.90;2.53;;;;;;;;;;5034557;28;20319;-67
2023/12/11 08:17:55;;;;;;;10.40;2.70;;;;;;;;;;5042691;28;20298;-67
2023/12/11 08:20:22;;;;;;;9.13;2.77;;;;;;;;;;5039957;28;20223;-62
2023/12/11 08:22:49;;;;;;;11.67;2.50;;;;;;;;;;5044480;28;20203;-63
2023/12/11 08:25:17;;;;;;;8.37;2.63;;;;;;;;;;5038809;28;20219;-62
2023/12/11 08:27:46;;;;;;;15.77;2.93;;;;;;;;;;5039328;28;20290;-62
2023/12/11 08:30:14;;;;;;;13.57;3.10;;;;;;;;;;5038657;28;20243;-62
2023/12/11 08:32:41;;;;;;;8.80;2.20;;;;;;;;;;5041735;28;20243;-62
2023/12/11 08:35:09;;;;;;;12.17;2.60;;;;;;;;;;5044235;28;20251;-62
2023/12/11 08:37:36;;;;;;;10.97;2.70;;;;;;;;;;5043067;28;20294;-63
2023/12/11 08:40:04;;;;;;;7.87;2.53;;;;;;;;;;5039196;28;20203;-63
2023/12/11 08:42:33;;;;;;;14.00;2.40;;;;;;;;;;5040902;28;20215;-63
2023/12/11 08:45:02;;;;;;;12.53;2.90;;;;;;;;;;5038059;28;20254;-63
2023/12/11 08:47:30;;;;;;;11.20;2.77;;;;;;;;;;5041254;28;20217;-63
2023/12/11 08:50:03;;;;;;;15.57;2.77;;;;;;;;;;5045827;28;20204;-62
2023/12/11 08:52:31;;;;;;;12.03;2.70;;;;;;;;;;5037694;28;20250;-63
2023/12/11 08:54:58;;;;;;;12.27;2.70;;;;;;;;;;5041025;28;20211;-63
2023/12/11 08:57:25;;;;;;;10.20;2.77;;;;;;;;;;5039283;28;20235;-63
2023/12/11 08:59:52;;;;;;;11.83;2.77;;;;;;;;;;5039836;28;20205;-62
2023/12/11 09:02:21;;;;;;;15.43;3.23;;;;;;;;;;5041712;28;20291;-62
2023/12/11 09:04:48;;;;;;;11.17;2.67;;;;;;;;;;5039500;28;20196;-62
2023/12/11 09:07:16;;;;;;;8.83;2.70;;;;;;;;;;5037973;28;20312;-62
2023/12/11 09:09:43;;;;;;;10.97;2.77;;;;;;;;;;5034749;28;20253;-62
2023/12/11 09:12:10;;;;;;;12.77;3.30;;;;;;;;;;5044771;28;20207;-62
2023/12/11 09:14:38;;;;;;;8.77;2.80;;;;;;;;;;5044633;28;20238;-63
2023/12/11 09:17:06;;;;;;;8.37;2.60;;;;;;;;;;5039551;28;20250;-62
2023/12/11 09:19:35;;;;;;;13.17;2.47;;;;;;;;;;5037506;28;20235;-64
2023/12/11 09:22:02;;;;;;;16.90;3.47;;;;;;;;;;5038039;28;20236;-62
2023/12/11 09:24:29;;;;;;;11.57;3.20;;;;;;;;;;5038731;28;20242;-62
2023/12/11 09:26:56;;;;;;;9.33;2.80;;;;;;;;;;5041498;28;20215;-62
2023/12/11 09:29:23;;;;;;;16.87;2.80;;;;;;;;;;5038923;28;20242;-66
2023/12/11 09:31:50;;;;;;;13.03;2.77;;;;;;;;;;5042996;28;20242;-62
2023/12/11 09:34:18;;;;;;;10.43;3.10;;;;;;;;;;5040278;28;20238;-62
2023/12/11 09:36:46;;;;;;;13.87;3.00;;;;;;;;;;5045566;28;20200;-62
2023/12/11 09:39:13;;;;;;;10.33;2.90;;;;;;;;;;5044012;28;20230;-63
2023/12/11 09:41:41;;;;;;;13.27;2.67;;;;;;;;;;5047477;28;20226;-62
2023/12/11 09:44:09;;;;;;;14.53;3.10;;;;;;;;;;5045273;28;20196;-62
2023/12/11 09:46:39;;;;;;;11.53;3.03;;;;;;;;;;5041916;28;20215;-62
2023/12/11 09:49:06;;;;;;;12.33;2.93;;;;;;;;;;5045626;28;20299;-62
2023/12/11 09:51:34;;;;;;;14.93;2.90;;;;;;;;;;5040837;28;20200;-63
2023/12/11 09:54:02;;;;;;;9.27;2.60;;;;;;;;;;5040269;28;20196;-62
2023/12/11 09:56:31;;;;;;;12.53;3.30;;;;;;;;;;5043271;28;20218;-63
2023/12/11 09:58:58;;;;;;;12.63;3.47;;;;;;;;;;5041915;28;20210;-61
2023/12/11 10:01:25;;;;;;;13.40;3.00;;;;;;;;;;5046571;28;20249;-63
2023/12/11 10:03:53;;;;;;;13.80;4.47;;;;;;;;;;5046128;28;20214;-63
2023/12/11 10:06:20;;;;;;;11.30;2.60;;;;;;;;;;5041947;28;20262;-64
2023/12/11 10:08:52;;;;;;;13.07;3.00;;;;;;;;;;5041452;28;20293;-62
2023/12/11 10:11:22;;;;;;;12.27;2.90;;;;;;;;;;5043282;28;20230;-63
2023/12/11 10:13:50;;;;;;;8.73;2.83;;;;;;;;;;5046354;28;20235;-63
2023/12/11 10:16:30;;;;;;;10.53;3.10;;;;;;;;;;5040632;28;20207;-62
2023/12/11 10:18:57;;;;;;;13.70;2.70;;;;;;;;;;5039806;28;20294;-63
2023/12/11 10:21:25;;;;;;;7.27;2.63;;;;;;;;;;5039284;28;20195;-63
2023/12/11 10:24:03;;;;;;;8.60;2.63;;;;;;;;;;5039415;28;20209;-63
2023/12/11 10:26:32;;;;;;;10.50;2.70;;;;;;;;;;5043053;28;20226;-63
2023/12/11 10:29:17;;;;;;;11.57;2.60;;;;;;;;;;5037303;28;20258;-62
2023/12/11 10:31:44;;;;;;;10.43;2.27;;;;;;;;;;5042303;28;20219;-62
2023/12/11 10:34:12;;;;;;;11.77;2.77;;;;;;;;;;5045546;28;20234;-62
2023/12/11 10:36:51;;;;;;;12.23;2.47;;;;;;;;;;5043310;28;20204;-63
2023/12/11 10:39:20;;;;;;;12.13;2.67;;;;;;;;;;5046083;28;20212;-62
2023/12/11 10:41:55;;;;;;;8.23;2.30;;;;;;;;;;5039173;28;20212;-63
2023/12/11 10:44:26;;;;;;;8.63;2.67;;;;;;;;;;5043755;28;20207;-63
2023/12/11 10:46:55;;;;;;;10.37;2.77;;;;;;;;;;5039306;28;20307;-64
2023/12/11 10:49:24;;;;;;;10.70;2.13;;;;;;;;;;5045034;28;20269;-64
2023/12/11 10:51:55;;;;;;;8.83;2.20;;;;;;;;;;5038887;28;20208;-62
2023/12/11 10:54:26;;;;;;;12.20;2.60;;;;;;;;;;5041046;28;20195;-62
2023/12/11 10:56:58;;;;;;;15.00;2.87;;;;;;;;;;5036779;28;20206;-62
2023/12/11 10:59:25;;;;;;;9.47;2.77;;;;;;;;;;5038679;28;20471;-63
2023/12/11 11:01:52;;;;;;;11.70;2.73;;;;;;;;;;5047768;28;20241;-62
2023/12/11 11:04:23;;;;;;;10.47;3.03;;;;;;;;;;5042350;28;20471;-64
2023/12/11 11:06:56;;;;;;;10.00;2.70;;;;;;;;;;5042261;28;20219;-63
2023/12/11 11:09:28;;;;;;;11.80;2.97;;;;;;;;;;5044287;28;20204;-63
2023/12/11 11:12:00;;;;;;;7.93;2.30;;;;;;;;;;5044866;28;20239;-63
2023/12/11 11:14:41;;;;;;;8.07;2.80;;;;;;;;;;5043168;28;20240;-62
2023/12/11 11:17:11;;;;;;;8.17;2.50;;;;;;;;;;5041653;28;20278;-63
2023/12/11 11:19:59;;;;;;;11.73;2.37;;;;;;;;;;5030672;28;20212;-63
2023/12/11 11:22:26;;;;;;;9.83;2.47;;;;;;;;;;5037393;28;20210;-62
2023/12/11 11:24:54;;;;;;;9.97;2.67;;;;;;;;;;5039784;28;20214;-62
2023/12/11 11:27:42;;;;;;;9.93;3.00;;;;;;;;;;5041320;28;20224;-64
2023/12/11 11:30:13;;;;;;;9.87;2.57;;;;;;;;;;5038380;28;20208;-63
2023/12/11 11:32:53;;;;;;;10.83;2.80;;;;;;;;;;5033160;28;20199;-63
2023/12/11 11:35:35;;;;;;;10.00;2.43;;;;;;;;;;5044836;28;20211;-63
2023/12/11 11:38:02;;;;;;;8.13;2.73;;;;;;;;;;5033416;28;20230;-63
2023/12/11 11:40:34;;;;;;;7.33;2.63;;;;;;;;;;5037715;28;20208;-62
2023/12/11 11:43:08;;;;;;;10.63;2.63;;;;;;;;;;5036816;28;20242;-62
2023/12/11 11:45:35;;;;;;;7.97;2.10;;;;;;;;;;5030596;28;20207;-63
2023/12/11 11:48:03;;;;;;;9.10;2.50;;;;;;;;;;5037760;28;20297;-62
2023/12/11 11:50:30;;;;;;;10.27;3.27;;;;;;;;;;5034907;28;20211;-62
2023/12/11 11:53:00;;;;;;;12.53;2.53;;;;;;;;;;5038983;28;20200;-63
2023/12/11 11:55:28;;;;;;;7.70;2.57;;;;;;;;;;5042344;28;20210;-63
2023/12/11 11:57:55;;;;;;;8.77;2.23;;;;;;;;;;5033606;28;20196;-63
2023/12/11 12:00:24;;;;;;;8.53;2.10;;;;;;;;;;5035771;28;20203;-63
2023/12/11 12:02:56;;;;;;;7.20;2.07;;;;;;;;;;5038925;28;20204;-62
2023/12/11 12:05:24;;;;;;;7.47;2.43;;;;;;;;;;5040782;28;20234;-63
2023/12/11 12:07:51;;;;;;;11.53;2.63;;;;;;;;;;5032050;28;20246;-63
2023/12/11 12:10:18;;;;;;;7.43;2.57;;;;;;;;;;5037289;28;20211;-65
2023/12/11 12:12:49;;;;;;;9.33;2.27;;;;;;;;;;5029899;28;20214;-62
2023/12/11 12:15:17;;;;;;;13.97;2.60;;;;;;;;;;5038930;28;20250;-61
2023/12/11 12:17:46;;;;;;;9.33;2.43;;;;;;;;;;5038191;28;20204;-63
2023/12/11 12:20:13;;;;;;;8.03;2.13;;;;;;;;;;5038312;28;20203;-63
2023/12/11 12:22:40;;;;;;;9.87;2.60;;;;;;;;;;5037383;28;20237;-63
2023/12/11 12:25:16;;;;;;;10.93;2.97;;;;;;;;;;5039676;28;20200;-62
2023/12/11 12:27:44;;;;;;;9.27;2.33;;;;;;;;;;5039231;28;20226;-63
2023/12/11 12:30:12;;;;;;;13.97;2.90;;;;;;;;;;5033098;28;20215;-63
2023/12/11 12:32:39;;;;;;;13.87;2.80;;;;;;;;;;5033109;28;20558;-62
2023/12/11 12:35:09;;;;;;;6.67;2.43;;;;;;;;;;5038428;28;20199;-62
2023/12/11 12:37:37;;;;;;;9.83;2.40;;;;;;;;;;5040574;28;20192;-63
2023/12/11 12:40:06;;;;;;;11.47;2.50;;;;;;;;;;5038795;28;20207;-63
2023/12/11 12:42:33;;;;;;;10.70;2.43;;;;;;;;;;5043269;28;20195;-62
2023/12/11 12:45:01;;;;;;;13.63;2.93;;;;;;;;;;5031381;28;20199;-62
2023/12/11 12:47:28;;;;;;;9.30;2.73;;;;;;;;;;5038360;28;20234;-64
2023/12/11 12:49:56;;;;;;;10.47;2.43;;;;;;;;;;5041063;28;20210;-62
2023/12/11 12:52:25;;;;;;;10.70;2.33;;;;;;;;;;5042268;28;20223;-63
2023/12/11 12:54:53;;;;;;;6.73;2.13;;;;;;;;;;5034751;28;20307;-63
2023/12/11 12:57:20;;;;;;;7.53;2.17;;;;;;;;;;5041041;28;20192;-64
2023/12/11 12:59:48;;;;;;;11.63;2.70;;;;;;;;;;5042458;28;20200;-67
2023/12/11 13:02:16;;;;;;;11.00;2.70;;;;;;;;;;5034102;28;20208;-67
2023/12/11 13:04:49;;;;;;;10.47;2.37;;;;;;;;;;5041651;28;20200;-67
2023/12/11 13:07:17;;;;;;;11.23;2.57;;;;;;;;;;5044228;28;20251;-66
2023/12/11 13:09:45;;;;;;;11.67;2.83;;;;;;;;;;5046296;28;20207;-66
2023/12/11 13:12:13;;;;;;;10.37;2.83;;;;;;;;;;5043958;28;20215;-66
2023/12/11 13:14:42;;;;;;;7.60;2.20;;;;;;;;;;5032688;28;20243;-66
2023/12/11 13:17:09;;;;;;;5.77;1.97;;;;;;;;;;5043440;28;20417;-66
2023/12/11 13:19:36;;;;;;;9.83;3.00;;;;;;;;;;5043372;28;20207;-67
2023/12/11 13:22:08;;;;;;;8.23;2.40;;;;;;;;;;5039477;28;20207;-66
2023/12/11 13:24:35;;;;;;;11.67;2.57;;;;;;;;;;5036139;28;20207;-67
2023/12/11 13:27:05;;;;;;;10.63;2.43;;;;;;;;;;5043941;28;20222;-66
2023/12/11 13:29:33;;;;;;;8.47;2.30;;;;;;;;;;5047962;28;20210;-66
2023/12/11 13:32:00;;;;;;;9.13;2.37;;;;;;;;;;5042497;28;20203;-66
2023/12/11 13:34:27;;;;;;;9.10;2.90;;;;;;;;;;5039910;28;21677;-66
2023/12/11 13:36:54;;;;;;;11.17;2.53;;;;;;;;;;5037064;28;20322;-66
2023/12/11 13:39:21;;;;;;;9.03;2.50;;;;;;;;;;5045819;28;20212;-66
2023/12/11 13:41:48;;;;;;;8.23;2.63;;;;;;;;;;5041589;28;20312;-65
2023/12/11 13:44:17;;;;;;;6.57;2.20;;;;;;;;;;5045997;28;20207;-67
2023/12/11 13:46:45;;;;;;;15.60;3.37;;;;;;;;;;5038782;28;20214;-67
2023/12/11 13:49:12;;;;;;;9.60;2.90;;;;;;;;;;5045452;28;20216;-66
2023/12/11 13:51:39;;;;;;;11.30;2.80;;;;;;;;;;5054923;28;20199;-67
2023/12/11 13:54:06;;;;;;;14.23;3.70;;;;;;;;;;5045127;28;20208;-68
2023/12/11 13:56:34;;;;;;;15.97;4.60;;;;;;;;;;5040428;28;20215;-67
2023/12/11 13:59:01;;;;;;;14.87;3.50;;;;;;;;;;5045258;28;20199;-66
2023/12/11 14:01:29;;;;;;;13.57;3.47;;;;;;;;;;5040236;28;20210;-66
2023/12/11 14:03:56;;;;;;;12.70;3.33;;;;;;;;;;5039912;28;20196;-66
2023/12/11 14:06:24;;;;;;;11.93;3.43;;;;;;;;;;5043726;28;20200;-67
2023/12/11 14:08:51;;;;;;;11.30;3.00;;;;;;;;;;5042914;28;20219;-66
2023/12/11 14:11:19;;;;;;;10.80;3.00;;;;;;;;;;5045652;28;20203;-67
2023/12/11 14:13:46;;;;;;;9.17;2.77;;;;;;;;;;5035093;28;20223;-67
2023/12/11 14:16:13;;;;;;;10.67;3.03;;;;;;;;;;5037111;28;20212;-67
2023/12/11 14:18:41;;;;;;;10.20;3.07;;;;;;;;;;5046406;28;20216;-66
2023/12/11 14:21:10;;;;;;;10.90;2.90;;;;;;;;;;5044096;28;20204;-66
2023/12/11 14:23:38;;;;;;;11.77;3.00;;;;;;;;;;5039014;28;20253;-67
2023/12/11 14:26:05;;;;;;;10.33;2.93;;;;;;;;;;5037380;28;20214;-66
2023/12/11 14:28:33;;;;;;;12.73;2.87;;;;;;;;;;5043706;28;20242;-66
2023/12/11 14:31:01;;;;;;;12.50;2.97;;;;;;;;;;5045462;28;20199;-67
2023/12/11 14:33:28;;;;;;;14.03;3.33;;;;;;;;;;5038853;28;20204;-67
2023/12/11 14:35:57;;;;;;;16.43;3.00;;;;;;;;;;5040762;28;20204;-68
2023/12/11 14:38:25;;;;;;;10.77;3.17;;;;;;;;;;5040438;28;20298;-68
2023/12/11 14:40:52;;;;;;;14.20;2.90;;;;;;;;;;5038356;28;20204;-66
2023/12/11 14:43:19;;;;;;;12.10;3.23;;;;;;;;;;5039732;28;20218;-67